sensor_id;sensor_type;location;lat;lon;timestamp;pressure;altitude;pressure_sealevel;temperature;humidity
77240;BME280;66258;53.170;-2.240;2024-02-21T00:00:19;100400.13;;;18.27;100.00
77240;BME280;66258;53.170;-2.240;2024-02-21T00:02:45;100388.09;;;18.28;100.00
77240;BME280;66258;53.170;-2.240;2024-02-21T00:05:12;100387.16;;;18.54;100.00
77240;BME280;66258;53.170;-2.240;2024-02-21T00:07:39;100388.00;;;18.61;100.00
77240;BME280;66258;53.170;-2.240;2024-02-21T00:10:08;100385.47;;;18.60;100.00
77240;BME280;66258;53.170;-2.240;2024-02-21T00:12:36;100383.78;;;18.65;100.00
77240;BME280;66258;53.170;-2.240;2024-02-21T00:15:03;100387.91;;;18.81;100.00
77240;BME280;66258;53.170;-2.240;2024-02-21T00:17:29;100391.69;;;18.86;100.00
77240;BME280;66258;53.170;-2.240;2024-02-21T00:19:56;100386.16;;;18.93;100.00
77240;BME280;66258;53.170;-2.240;2024-02-21T00:22:23;100382.53;;;18.99;100.00
77240;BME280;66258;53.170;-2.240;2024-02-21T00:24:50;100392.63;;;19.05;100.00
77240;BME280;66258;53.170;-2.240;2024-02-21T00:27:16;100386.53;;;19.03;100.00
77240;BME280;66258;53.170;-2.240;2024-02-21T00:29:44;100379.78;;;18.99;100.00
77240;BME280;66258;53.170;-2.240;2024-02-21T00:32:11;100378.88;;;19.12;100.00
77240;BME280;66258;53.170;-2.240;2024-02-21T00:34:38;100371.44;;;19.19;100.00
77240;BME280;66258;53.170;-2.240;2024-02-21T00:37:05;100365.53;;;19.15;100.00
77240;BME280;66258;53.170;-2.240;2024-02-21T00:39:32;100358.13;;;19.22;100.00
77240;BME280;66258;53.170;-2.240;2024-02-21T00:41:59;100353.34;;;19.11;100.00
77240;BME280;66258;53.170;-2.240;2024-02-21T00:44:25;100352.03;;;19.14;100.00
77240;BME280;66258;53.170;-2.240;2024-02-21T00:46:53;100350.09;;;19.21;100.00
77240;BME280;66258;53.170;-2.240;2024-02-21T00:49:20;100341.47;;;19.17;100.00
77240;BME280;66258;53.170;-2.240;2024-02-21T00:51:47;100331.72;;;19.21;100.00
77240;BME280;66258;53.170;-2.240;2024-02-21T00:54:14;100334.06;;;19.18;100.00
77240;BME280;66258;53.170;-2.240;2024-02-21T00:56:40;100326.69;;;19.18;100.00
77240;BME280;66258;53.170;-2.240;2024-02-21T00:59:07;100317.59;;;19.18;100.00
77240;BME280;66258;53.170;-2.240;2024-02-21T01:01:34;100314.25;;;19.16;100.00
77240;BME280;66258;53.170;-2.240;2024-02-21T01:04:02;100298.56;;;19.23;100.00
77240;BME280;66258;53.170;-2.240;2024-02-21T01:06:29;100297.28;;;19.01;100.00
77240;BME280;66258;53.170;-2.240;2024-02-21T01:08:56;100283.06;;;19.10;100.00
77240;BME280;66258;53.170;-2.240;2024-02-21T01:11:23;100283.19;;;19.22;100.00
77240;BME280;66258;53.170;-2.240;2024-02-21T01:13:49;100272.47;;;19.14;100.00
77240;BME280;66258;53.170;-2.240;2024-02-21T01:16:16;100262.34;;;19.14;100.00
77240;BME280;66258;53.170;-2.240;2024-02-21T01:18:43;100256.56;;;18.98;100.00
77240;BME280;66258;53.170;-2.240;2024-02-21T01:21:11;100251.50;;;18.95;100.00
77240;BME280;66258;53.170;-2.240;2024-02-21T01:23:38;100248.78;;;19.44;100.00
77240;BME280;66258;53.170;-2.240;2024-02-21T01:26:05;100247.06;;;19.50;100.00
77240;BME280;66258;53.170;-2.240;2024-02-21T01:28:31;100224.88;;;19.27;100.00
77240;BME280;66258;53.170;-2.240;2024-02-21T01:30:58;100206.06;;;18.80;100.00
77240;BME280;66258;53.170;-2.240;2024-02-21T01:33:25;100194.44;;;18.85;100.00
77240;BME280;66258;53.170;-2.240;2024-02-21T01:35:52;100197.84;;;18.80;100.00
77240;BME280;66258;53.170;-2.240;2024-02-21T01:38:20;100180.53;;;18.80;100.00
77240;BME280;66258;53.170;-2.240;2024-02-21T01:40:47;100177.81;;;19.05;100.00
77240;BME280;66258;53.170;-2.240;2024-02-21T01:43:18;100186.47;;;19.02;100.00
77240;BME280;66258;53.170;-2.240;2024-02-21T01:45:48;100176.09;;;19.47;100.00
77240;BME280;66258;53.170;-2.240;2024-02-21T01:48:17;100176.81;;;19.61;100.00
77240;BME280;66258;53.170;-2.240;2024-02-21T01:50:44;100182.88;;;19.26;100.00
77240;BME280;66258;53.170;-2.240;2024-02-21T01:53:12;100182.22;;;19.49;100.00
77240;BME280;66258;53.170;-2.240;2024-02-21T01:55:41;100185.00;;;19.67;100.00
77240;BME280;66258;53.170;-2.240;2024-02-21T01:58:10;100192.69;;;19.59;100.00
77240;BME280;66258;53.170;-2.240;2024-02-21T02:00:38;100180.38;;;19.43;100.00
77240;BME280;66258;53.170;-2.240;2024-02-21T02:03:07;100175.94;;;19.42;100.00
77240;BME280;66258;53.170;-2.240;2024-02-21T02:05:35;100175.47;;;19.51;100.00
77240;BME280;66258;53.170;-2.240;2024-02-21T02:08:02;100166.38;;;19.51;100.00
77240;BME280;66258;53.170;-2.240;2024-02-21T02:10:29;100160.66;;;19.52;100.00
77240;BME280;66258;53.170;-2.240;2024-02-21T02:12:57;100145.91;;;19.47;100.00
77240;BME280;66258;53.170;-2.240;2024-02-21T02:15:24;100132.63;;;19.44;100.00
77240;BME280;66258;53.170;-2.240;2024-02-21T02:17:50;100134.59;;;19.37;100.00
77240;BME280;66258;53.170;-2.240;2024-02-21T02:20:17;100129.88;;;19.44;100.00
77240;BME280;66258;53.170;-2.240;2024-02-21T02:22:46;100118.13;;;19.37;100.00
77240;BME280;66258;53.170;-2.240;2024-02-21T02:25:15;100117.41;;;19.30;100.00
77240;BME280;66258;53.170;-2.240;2024-02-21T02:27:42;100119.44;;;19.34;100.00
77240;BME280;66258;53.170;-2.240;2024-02-21T02:30:10;100096.13;;;19.07;100.00
77240;BME280;66258;53.170;-2.240;2024-02-21T02:32:37;100089.78;;;19.25;100.00
77240;BME280;66258;53.170;-2.240;2024-02-21T02:35:04;100087.72;;;19.02;100.00
77240;BME280;66258;53.170;-2.240;2024-02-21T02:37:31;100081.38;;;19.38;100.00
77240;BME280;66258;53.170;-2.240;2024-02-21T02:39:58;100066.94;;;19.31;100.00
77240;BME280;66258;53.170;-2.240;2024-02-21T02:42:26;100053.78;;;18.78;100.00
77240;BME280;66258;53.170;-2.240;2024-02-21T02:44:53;100061.06;;;19.27;100.00
77240;BME280;66258;53.170;-2.240;2024-02-21T02:47:20;100049.22;;;19.27;100.00
77240;BME280;66258;53.170;-2.240;2024-02-21T02:49:46;100045.09;;;19.17;100.00
77240;BME280;66258;53.170;-2.240;2024-02-21T02:52:13;100030.03;;;19.27;100.00
77240;BME280;66258;53.170;-2.240;2024-02-21T02:54:40;100023.16;;;19.17;100.00
77240;BME280;66258;53.170;-2.240;2024-02-21T02:57:07;100010.28;;;18.81;100.00
77240;BME280;66258;53.170;-2.240;2024-02-21T02:59:35;100007.84;;;19.28;100.00
77240;BME280;66258;53.170;-2.240;2024-02-21T03:02:01;100001.69;;;18.96;100.00
77240;BME280;66258;53.170;-2.240;2024-02-21T03:04:28;99989.78;;;19.02;100.00
77240;BME280;66258;53.170;-2.240;2024-02-21T03:06:55;99982.25;;;18.98;100.00
77240;BME280;66258;53.170;-2.240;2024-02-21T03:09:22;99979.28;;;18.99;100.00
77240;BME280;66258;53.170;-2.240;2024-02-21T03:11:49;99981.34;;;19.04;100.00
77240;BME280;66258;53.170;-2.240;2024-02-21T03:14:15;99974.38;;;19.19;100.00
77240;BME280;66258;53.170;-2.240;2024-02-21T03:16:43;99960.16;;;19.11;100.00
77240;BME280;66258;53.170;-2.240;2024-02-21T03:19:10;99949.25;;;19.04;100.00
77240;BME280;66258;53.170;-2.240;2024-02-21T03:21:37;99940.41;;;19.02;100.00
77240;BME280;66258;53.170;-2.240;2024-02-21T03:24:04;99932.22;;;19.14;100.00
77240;BME280;66258;53.170;-2.240;2024-02-21T03:26:31;99922.47;;;19.18;100.00
77240;BME280;66258;53.170;-2.240;2024-02-21T03:28:58;99910.34;;;19.26;100.00
77240;BME280;66258;53.170;-2.240;2024-02-21T03:31:25;99906.19;;;19.35;100.00
77240;BME280;66258;53.170;-2.240;2024-02-21T03:33:59;99893.78;;;19.32;100.00
77240;BME280;66258;53.170;-2.240;2024-02-21T03:36:25;99894.78;;;19.49;100.00
77240;BME280;66258;53.170;-2.240;2024-02-21T03:38:53;99886.13;;;19.34;100.00
77240;BME280;66258;53.170;-2.240;2024-02-21T03:41:20;99867.81;;;19.16;100.00
77240;BME280;66258;53.170;-2.240;2024-02-21T03:43:48;99866.28;;;19.20;100.00
77240;BME280;66258;53.170;-2.240;2024-02-21T03:46:15;99857.81;;;19.10;100.00
77240;BME280;66258;53.170;-2.240;2024-02-21T03:48:42;99848.63;;;19.16;100.00
77240;BME280;66258;53.170;-2.240;2024-02-21T03:51:10;99833.50;;;19.26;100.00
77240;BME280;66258;53.170;-2.240;2024-02-21T03:53:37;99819.19;;;19.35;100.00
77240;BME280;66258;53.170;-2.240;2024-02-21T03:56:04;99817.88;;;19.26;100.00
77240;BME280;66258;53.170;-2.240;2024-02-21T03:58:31;99821.19;;;19.16;100.00
77240;BME280;66258;53.170;-2.240;2024-02-21T04:00:59;99807.91;;;18.72;100.00
77240;BME280;66258;53.170;-2.240;2024-02-21T04:03:26;99799.66;;;18.90;100.00
77240;BME280;66258;53.170;-2.240;2024-02-21T04:05:54;99804.66;;;18.93;100.00
77240;BME280;66258;53.170;-2.240;2024-02-21T04:08:23;99799.50;;;18.85;100.00
77240;BME280;66258;53.170;-2.240;2024-02-21T04:10:49;99790.00;;;18.87;100.00
77240;BME280;66258;53.170;-2.240;2024-02-21T04:13:16;99781.94;;;19.04;100.00
77240;BME280;66258;53.170;-2.240;2024-02-21T04:15:43;99786.13;;;18.77;100.00
77240;BME280;66258;53.170;-2.240;2024-02-21T04:18:10;99769.53;;;18.72;100.00
77240;BME280;66258;53.170;-2.240;2024-02-21T04:20:37;99768.56;;;18.66;100.00
77240;BME280;66258;53.170;-2.240;2024-02-21T04:23:03;99773.13;;;18.54;100.00
77240;BME280;66258;53.170;-2.240;2024-02-21T04:25:31;99754.44;;;18.33;100.00
77240;BME280;66258;53.170;-2.240;2024-02-21T04:27:59;99757.44;;;18.91;100.00
77240;BME280;66258;53.170;-2.240;2024-02-21T04:30:26;99758.56;;;18.72;100.00
77240;BME280;66258;53.170;-2.240;2024-02-21T04:32:52;99736.50;;;18.67;100.00
77240;BME280;66258;53.170;-2.240;2024-02-21T04:35:19;99734.47;;;18.62;100.00
77240;BME280;66258;53.170;-2.240;2024-02-21T04:37:46;99734.84;;;18.66;100.00
77240;BME280;66258;53.170;-2.240;2024-02-21T04:40:13;99726.03;;;18.45;100.00
77240;BME280;66258;53.170;-2.240;2024-02-21T04:42:41;99710.47;;;18.28;100.00
77240;BME280;66258;53.170;-2.240;2024-02-21T04:45:09;99690.38;;;18.64;100.00
77240;BME280;66258;53.170;-2.240;2024-02-21T04:47:36;99695.41;;;18.78;100.00
77240;BME280;66258;53.170;-2.240;2024-02-21T04:50:03;99684.28;;;18.73;100.00
77240;BME280;66258;53.170;-2.240;2024-02-21T04:52:30;99661.56;;;18.43;100.00
77240;BME280;66258;53.170;-2.240;2024-02-21T04:54:57;99647.19;;;18.59;100.00
77240;BME280;66258;53.170;-2.240;2024-02-21T04:57:23;99632.34;;;18.37;100.00
77240;BME280;66258;53.170;-2.240;2024-02-21T04:59:52;99625.88;;;18.31;100.00
77240;BME280;66258;53.170;-2.240;2024-02-21T05:02:18;99624.81;;;18.32;100.00
77240;BME280;66258;53.170;-2.240;2024-02-21T05:04:45;99622.28;;;18.19;100.00
77240;BME280;66258;53.170;-2.240;2024-02-21T05:07:12;99614.44;;;18.23;100.00
77240;BME280;66258;53.170;-2.240;2024-02-21T05:09:39;99613.38;;;18.77;100.00
77240;BME280;66258;53.170;-2.240;2024-02-21T05:12:06;99589.25;;;18.14;100.00
77240;BME280;66258;53.170;-2.240;2024-02-21T05:14:33;99581.16;;;18.07;100.00
77240;BME280;66258;53.170;-2.240;2024-02-21T05:17:01;99573.63;;;18.44;100.00
77240;BME280;66258;53.170;-2.240;2024-02-21T05:19:28;99568.47;;;18.36;100.00
77240;BME280;66258;53.170;-2.240;2024-02-21T05:21:55;99562.66;;;18.56;100.00
77240;BME280;66258;53.170;-2.240;2024-02-21T05:24:22;99537.22;;;18.14;100.00
77240;BME280;66258;53.170;-2.240;2024-02-21T05:26:48;99539.03;;;18.20;100.00
77240;BME280;66258;53.170;-2.240;2024-02-21T05:29:15;99532.72;;;18.31;100.00
77240;BME280;66258;53.170;-2.240;2024-02-21T05:31:57;99526.06;;;18.50;100.00
77240;BME280;66258;53.170;-2.240;2024-02-21T05:34:26;99524.88;;;18.23;100.00
77240;BME280;66258;53.170;-2.240;2024-02-21T05:36:53;99514.50;;;18.37;100.00
77240;BME280;66258;53.170;-2.240;2024-02-21T05:39:20;99496.13;;;18.14;100.00
77240;BME280;66258;53.170;-2.240;2024-02-21T05:41:46;99495.69;;;18.29;100.00
77240;BME280;66258;53.170;-2.240;2024-02-21T05:44:13;99475.75;;;18.10;100.00
77240;BME280;66258;53.170;-2.240;2024-02-21T05:46:40;99478.63;;;18.15;100.00
77240;BME280;66258;53.170;-2.240;2024-02-21T05:49:06;99478.41;;;18.40;100.00
77240;BME280;66258;53.170;-2.240;2024-02-21T05:51:35;99467.47;;;18.28;100.00
77240;BME280;66258;53.170;-2.240;2024-02-21T05:54:02;99465.22;;;18.48;100.00
77240;BME280;66258;53.170;-2.240;2024-02-21T05:56:28;99447.91;;;18.13;100.00
77240;BME280;66258;53.170;-2.240;2024-02-21T05:58:55;99437.31;;;18.16;100.00
77240;BME280;66258;53.170;-2.240;2024-02-21T06:01:22;99430.06;;;18.22;100.00
77240;BME280;66258;53.170;-2.240;2024-02-21T06:03:49;99420.50;;;18.36;100.00
77240;BME280;66258;53.170;-2.240;2024-02-21T06:06:16;99412.19;;;18.08;100.00
77240;BME280;66258;53.170;-2.240;2024-02-21T06:08:44;99407.66;;;18.37;100.00
77240;BME280;66258;53.170;-2.240;2024-02-21T06:11:10;99405.88;;;18.19;100.00
77240;BME280;66258;53.170;-2.240;2024-02-21T06:13:38;99386.78;;;17.89;100.00
77240;BME280;66258;53.170;-2.240;2024-02-21T06:16:06;99387.28;;;18.09;100.00
77240;BME280;66258;53.170;-2.240;2024-02-21T06:18:35;99397.41;;;17.85;100.00
77240;BME280;66258;53.170;-2.240;2024-02-21T06:21:02;99381.34;;;18.01;100.00
77240;BME280;66258;53.170;-2.240;2024-02-21T06:23:29;99371.81;;;18.15;100.00
77240;BME280;66258;53.170;-2.240;2024-02-21T06:25:57;99361.22;;;18.07;100.00
77240;BME280;66258;53.170;-2.240;2024-02-21T06:28:24;99344.66;;;17.78;100.00
77240;BME280;66258;53.170;-2.240;2024-02-21T06:30:51;99328.31;;;17.60;100.00
77240;BME280;66258;53.170;-2.240;2024-02-21T06:33:18;99305.50;;;17.66;100.00
77240;BME280;66258;53.170;-2.240;2024-02-21T06:35:44;99316.63;;;17.53;100.00
77240;BME280;66258;53.170;-2.240;2024-02-21T06:38:11;99296.78;;;17.69;100.00
77240;BME280;66258;53.170;-2.240;2024-02-21T06:40:38;99290.47;;;17.45;100.00
77240;BME280;66258;53.170;-2.240;2024-02-21T06:43:06;99287.13;;;17.55;100.00
77240;BME280;66258;53.170;-2.240;2024-02-21T06:45:33;99290.00;;;17.60;100.00
77240;BME280;66258;53.170;-2.240;2024-02-21T06:47:59;99283.63;;;17.66;100.00
77240;BME280;66258;53.170;-2.240;2024-02-21T06:50:26;99279.53;;;17.57;100.00
77240;BME280;66258;53.170;-2.240;2024-02-21T06:52:53;99281.69;;;17.02;100.00
77240;BME280;66258;53.170;-2.240;2024-02-21T06:55:20;99258.69;;;16.79;100.00
77240;BME280;66258;53.170;-2.240;2024-02-21T06:57:47;99250.56;;;16.73;100.00
77240;BME280;66258;53.170;-2.240;2024-02-21T07:00:16;99263.88;;;17.11;100.00
77240;BME280;66258;53.170;-2.240;2024-02-21T07:02:43;99249.41;;;17.34;100.00
77240;BME280;66258;53.170;-2.240;2024-02-21T07:05:10;99254.28;;;17.55;100.00
77240;BME280;66258;53.170;-2.240;2024-02-21T07:07:37;99218.50;;;17.45;100.00
77240;BME280;66258;53.170;-2.240;2024-02-21T07:10:04;99218.00;;;17.25;100.00
77240;BME280;66258;53.170;-2.240;2024-02-21T07:12:31;99220.84;;;17.30;100.00
77240;BME280;66258;53.170;-2.240;2024-02-21T07:14:58;99213.84;;;17.22;100.00
77240;BME280;66258;53.170;-2.240;2024-02-21T07:17:26;99206.00;;;17.61;100.00
77240;BME280;66258;53.170;-2.240;2024-02-21T07:19:52;99201.59;;;17.60;100.00
77240;BME280;66258;53.170;-2.240;2024-02-21T07:22:19;99188.25;;;17.51;100.00
77240;BME280;66258;53.170;-2.240;2024-02-21T07:24:46;99178.72;;;16.96;100.00
77240;BME280;66258;53.170;-2.240;2024-02-21T07:27:14;99173.63;;;16.99;100.00
77240;BME280;66258;53.170;-2.240;2024-02-21T07:29:41;99161.25;;;16.97;100.00
77240;BME280;66258;53.170;-2.240;2024-02-21T07:32:08;99148.91;;;16.94;100.00
77240;BME280;66258;53.170;-2.240;2024-02-21T07:34:36;99146.72;;;16.73;100.00
77240;BME280;66258;53.170;-2.240;2024-02-21T07:37:03;99152.22;;;17.08;100.00
77240;BME280;66258;53.170;-2.240;2024-02-21T07:39:30;99141.84;;;16.87;100.00
77240;BME280;66258;53.170;-2.240;2024-02-21T07:41:57;99142.03;;;17.03;100.00
77240;BME280;66258;53.170;-2.240;2024-02-21T07:44:23;99139.84;;;16.82;100.00
77240;BME280;66258;53.170;-2.240;2024-02-21T07:46:50;99113.84;;;16.49;100.00
77240;BME280;66258;53.170;-2.240;2024-02-21T07:49:17;99118.09;;;16.75;100.00
77240;BME280;66258;53.170;-2.240;2024-02-21T07:51:45;99086.44;;;16.56;100.00
77240;BME280;66258;53.170;-2.240;2024-02-21T07:54:12;99110.84;;;17.04;100.00
77240;BME280;66258;53.170;-2.240;2024-02-21T07:56:43;99106.47;;;17.15;100.00
77240;BME280;66258;53.170;-2.240;2024-02-21T07:59:09;99100.03;;;17.09;100.00
77240;BME280;66258;53.170;-2.240;2024-02-21T08:01:36;99099.44;;;16.84;100.00
77240;BME280;66258;53.170;-2.240;2024-02-21T08:04:03;99083.41;;;16.99;100.00
77240;BME280;66258;53.170;-2.240;2024-02-21T08:06:30;99081.72;;;17.33;100.00
77240;BME280;66258;53.170;-2.240;2024-02-21T08:08:58;99059.94;;;17.27;100.00
77240;BME280;66258;53.170;-2.240;2024-02-21T08:11:25;99033.84;;;16.96;100.00
77240;BME280;66258;53.170;-2.240;2024-02-21T08:13:52;99050.22;;;16.61;100.00
77240;BME280;66258;53.170;-2.240;2024-02-21T08:16:18;99045.13;;;16.99;100.00
77240;BME280;66258;53.170;-2.240;2024-02-21T08:18:45;99030.41;;;16.89;100.00
77240;BME280;66258;53.170;-2.240;2024-02-21T08:21:12;99030.38;;;16.65;100.00
77240;BME280;66258;53.170;-2.240;2024-02-21T08:23:39;98984.91;;;16.71;100.00
77240;BME280;66258;53.170;-2.240;2024-02-21T08:26:07;98999.81;;;17.15;100.00
77240;BME280;66258;53.170;-2.240;2024-02-21T08:28:34;98977.50;;;16.95;100.00
77240;BME280;66258;53.170;-2.240;2024-02-21T08:31:01;98988.66;;;17.16;100.00
77240;BME280;66258;53.170;-2.240;2024-02-21T08:33:27;98986.97;;;17.15;100.00
77240;BME280;66258;53.170;-2.240;2024-02-21T08:35:54;98968.13;;;16.91;100.00
77240;BME280;66258;53.170;-2.240;2024-02-21T08:38:21;98953.50;;;16.85;100.00
77240;BME280;66258;53.170;-2.240;2024-02-21T08:40:48;98966.66;;;17.23;100.00
77240;BME280;66258;53.170;-2.240;2024-02-21T08:43:16;98953.41;;;17.32;100.00
77240;BME280;66258;53.170;-2.240;2024-02-21T08:45:43;98927.28;;;16.72;100.00
77240;BME280;66258;53.170;-2.240;2024-02-21T08:48:10;98918.97;;;17.19;100.00
77240;BME280;66258;53.170;-2.240;2024-02-21T08:50:37;98913.34;;;16.86;100.00
77240;BME280;66258;53.170;-2.240;2024-02-21T08:53:03;98918.09;;;17.30;100.00
77240;BME280;66258;53.170;-2.240;2024-02-21T08:55:30;98911.28;;;17.33;100.00
77240;BME280;66258;53.170;-2.240;2024-02-21T08:57:57;98886.69;;;17.33;100.00
77240;BME280;66258;53.170;-2.240;2024-02-21T09:00:25;98880.47;;;17.37;100.00
77240;BME280;66258;53.170;-2.240;2024-02-21T09:02:52;98872.78;;;17.51;100.00
77240;BME280;66258;53.170;-2.240;2024-02-21T09:05:19;98848.97;;;17.06;100.00
77240;BME280;66258;53.170;-2.240;2024-02-21T09:07:46;98854.94;;;17.32;100.00
77240;BME280;66258;53.170;-2.240;2024-02-21T09:10:13;98842.22;;;17.26;100.00
77240;BME280;66258;53.170;-2.240;2024-02-21T09:12:40;98823.66;;;16.82;100.00
77240;BME280;66258;53.170;-2.240;2024-02-21T09:15:07;98822.13;;;17.32;100.00
77240;BME280;66258;53.170;-2.240;2024-02-21T09:17:36;98812.81;;;17.16;100.00
77240;BME280;66258;53.170;-2.240;2024-02-21T09:20:03;98796.16;;;17.17;100.00
77240;BME280;66258;53.170;-2.240;2024-02-21T09:22:30;98807.09;;;17.17;100.00
77240;BME280;66258;53.170;-2.240;2024-02-21T09:24:57;98787.97;;;17.17;100.00
77240;BME280;66258;53.170;-2.240;2024-02-21T09:27:24;98774.56;;;17.49;100.00
77240;BME280;66258;53.170;-2.240;2024-02-21T09:29:51;98768.00;;;17.34;100.00
77240;BME280;66258;53.170;-2.240;2024-02-21T09:32:18;98776.97;;;17.63;100.00
77240;BME280;66258;53.170;-2.240;2024-02-21T09:34:46;98755.16;;;17.68;100.00
77240;BME280;66258;53.170;-2.240;2024-02-21T09:37:13;98755.84;;;17.75;100.00
77240;BME280;66258;53.170;-2.240;2024-02-21T09:39:40;98739.41;;;17.58;100.00
77240;BME280;66258;53.170;-2.240;2024-02-21T09:42:11;98744.09;;;17.96;100.00
77240;BME280;66258;53.170;-2.240;2024-02-21T09:44:38;98734.63;;;17.65;100.00
77240;BME280;66258;53.170;-2.240;2024-02-21T09:47:07;98714.56;;;17.98;100.00
77240;BME280;66258;53.170;-2.240;2024-02-21T09:49:36;98693.81;;;17.64;100.00
77240;BME280;66258;53.170;-2.240;2024-02-21T09:52:05;98691.59;;;17.44;100.00
77240;BME280;66258;53.170;-2.240;2024-02-21T09:54:33;98698.78;;;17.83;100.00
77240;BME280;66258;53.170;-2.240;2024-02-21T09:57:00;98687.81;;;17.83;100.00
77240;BME280;66258;53.170;-2.240;2024-02-21T09:59:28;98686.28;;;18.14;100.00
77240;BME280;66258;53.170;-2.240;2024-02-21T10:01:55;98672.25;;;18.06;100.00
77240;BME280;66258;53.170;-2.240;2024-02-21T10:04:22;98666.38;;;18.19;100.00
77240;BME280;66258;53.170;-2.240;2024-02-21T10:06:49;98651.97;;;18.29;100.00
77240;BME280;66258;53.170;-2.240;2024-02-21T10:09:24;98617.00;;;18.14;100.00
77240;BME280;66258;53.170;-2.240;2024-02-21T10:11:51;98617.84;;;18.14;100.00
77240;BME280;66258;53.170;-2.240;2024-02-21T10:14:18;98609.31;;;18.11;100.00
77240;BME280;66258;53.170;-2.240;2024-02-21T10:16:46;98616.25;;;17.97;100.00
77240;BME280;66258;53.170;-2.240;2024-02-21T10:19:17;98613.06;;;18.27;100.00
77240;BME280;66258;53.170;-2.240;2024-02-21T10:21:57;98579.00;;;18.44;100.00
77240;BME280;66258;53.170;-2.240;2024-02-21T10:24:27;98594.41;;;18.24;100.00
77240;BME280;66258;53.170;-2.240;2024-02-21T10:26:59;98599.59;;;18.52;100.00
77240;BME280;66258;53.170;-2.240;2024-02-21T10:29:26;98594.38;;;18.77;100.00
77240;BME280;66258;53.170;-2.240;2024-02-21T10:32:04;98598.38;;;18.97;100.00
77240;BME280;66258;53.170;-2.240;2024-02-21T10:34:31;98583.59;;;19.40;100.00
77240;BME280;66258;53.170;-2.240;2024-02-21T10:37:00;98558.72;;;19.09;100.00
77240;BME280;66258;53.170;-2.240;2024-02-21T10:39:28;98561.06;;;19.33;100.00
77240;BME280;66258;53.170;-2.240;2024-02-21T10:42:00;98557.66;;;19.15;100.00
77240;BME280;66258;53.170;-2.240;2024-02-21T10:44:28;98526.66;;;19.10;100.00
77240;BME280;66258;53.170;-2.240;2024-02-21T10:46:55;98532.69;;;19.17;100.00
77240;BME280;66258;53.170;-2.240;2024-02-21T10:49:23;98527.66;;;18.99;100.00
77240;BME280;66258;53.170;-2.240;2024-02-21T10:51:55;98516.91;;;18.87;100.00
77240;BME280;66258;53.170;-2.240;2024-02-21T10:54:34;98531.78;;;19.01;100.00
77240;BME280;66258;53.170;-2.240;2024-02-21T10:57:06;98514.16;;;18.87;100.00
77240;BME280;66258;53.170;-2.240;2024-02-21T10:59:34;98504.06;;;18.98;100.00
77240;BME280;66258;53.170;-2.240;2024-02-21T11:02:03;98526.72;;;18.83;100.00
77240;BME280;66258;53.170;-2.240;2024-02-21T11:04:32;98506.59;;;19.04;100.00
77240;BME280;66258;53.170;-2.240;2024-02-21T11:07:01;98523.38;;;18.76;100.00
77240;BME280;66258;53.170;-2.240;2024-02-21T11:09:33;98503.19;;;18.87;100.00
77240;BME280;66258;53.170;-2.240;2024-02-21T11:12:02;98496.75;;;19.13;100.00
77240;BME280;66258;53.170;-2.240;2024-02-21T11:14:30;98487.44;;;19.14;100.00
77240;BME280;66258;53.170;-2.240;2024-02-21T11:16:56;98494.59;;;19.20;100.00
77240;BME280;66258;53.170;-2.240;2024-02-21T11:19:25;98499.91;;;19.32;100.00
77240;BME280;66258;53.170;-2.240;2024-02-21T11:21:54;98488.84;;;19.22;100.00
77240;BME280;66258;53.170;-2.240;2024-02-21T11:24:28;98467.88;;;18.96;100.00
77240;BME280;66258;53.170;-2.240;2024-02-21T11:26:56;98471.97;;;18.93;100.00
77240;BME280;66258;53.170;-2.240;2024-02-21T11:29:39;98482.50;;;18.69;100.00
77240;BME280;66258;53.170;-2.240;2024-02-21T11:32:09;98463.41;;;18.84;100.00
77240;BME280;66258;53.170;-2.240;2024-02-21T11:34:36;98439.63;;;18.90;100.00
77240;BME280;66258;53.170;-2.240;2024-02-21T11:37:13;98461.47;;;18.80;100.00
77240;BME280;66258;53.170;-2.240;2024-02-21T11:39:40;98456.81;;;18.80;100.00
77240;BME280;66258;53.170;-2.240;2024-02-21T11:42:09;98456.31;;;18.88;100.00
77240;BME280;66258;53.170;-2.240;2024-02-21T11:44:37;98450.50;;;19.37;100.00
77240;BME280;66258;53.170;-2.240;2024-02-21T11:47:04;98421.75;;;18.82;100.00
77240;BME280;66258;53.170;-2.240;2024-02-21T11:49:31;98428.75;;;19.15;100.00
77240;BME280;66258;53.170;-2.240;2024-02-21T11:51:58;98422.47;;;19.20;100.00
77240;BME280;66258;53.170;-2.240;2024-02-21T11:54:25;98415.44;;;18.82;100.00
77240;BME280;66258;53.170;-2.240;2024-02-21T11:56:52;98406.81;;;19.15;100.00
77240;BME280;66258;53.170;-2.240;2024-02-21T11:59:20;98394.19;;;19.14;100.00
77240;BME280;66258;53.170;-2.240;2024-02-21T12:01:47;98403.00;;;19.21;100.00
77240;BME280;66258;53.170;-2.240;2024-02-21T12:04:15;98389.59;;;19.30;100.00
77240;BME280;66258;53.170;-2.240;2024-02-21T12:06:42;98397.00;;;19.30;100.00
77240;BME280;66258;53.170;-2.240;2024-02-21T12:09:10;98398.09;;;19.29;100.00
77240;BME280;66258;53.170;-2.240;2024-02-21T12:11:40;98387.41;;;19.32;100.00
77240;BME280;66258;53.170;-2.240;2024-02-21T12:14:06;98399.59;;;19.67;100.00
77240;BME280;66258;53.170;-2.240;2024-02-21T12:16:35;98394.75;;;19.16;100.00
77240;BME280;66258;53.170;-2.240;2024-02-21T12:19:02;98384.44;;;19.49;100.00
77240;BME280;66258;53.170;-2.240;2024-02-21T12:21:31;98381.19;;;19.62;100.00
77240;BME280;66258;53.170;-2.240;2024-02-21T12:23:59;98381.94;;;19.42;100.00
77240;BME280;66258;53.170;-2.240;2024-02-21T12:26:26;98358.09;;;19.48;100.00
77240;BME280;66258;53.170;-2.240;2024-02-21T12:28:53;98355.09;;;19.49;100.00
77240;BME280;66258;53.170;-2.240;2024-02-21T12:31:20;98360.34;;;19.66;100.00
77240;BME280;66258;53.170;-2.240;2024-02-21T12:33:48;98359.22;;;19.57;100.00
77240;BME280;66258;53.170;-2.240;2024-02-21T12:36:15;98348.84;;;19.84;100.00
77240;BME280;66258;53.170;-2.240;2024-02-21T12:38:42;98351.81;;;19.58;100.00